• Join FlightAware (Why Join?)
  • Login
  • US Flag 
03:59AM EDT


 

Airport Tracker/Info


-or-


 

Live Flight TrackerFlight Track Log ✈ AAL9703 ✈ 12-Aug-2013 ✈ KBFI - KDFW

Flight Track Log - Related Links

Times and Time Zones

All times are in EDT time to prevent confusion due to time zone crossing. See the AAL9703 flight status page for this flight to view local times or setup timezone preferences in your user account.

Time Position Orientation Groundspeed Altitude Reporting Facility
EDT Latitude Longitude Course Direction KTS MPH feet Rate Location/Type
12:31PM 47.4944 -122.2700 148° Southeast 178 205 1,500  Level FlightAware ADS-B
12:32PM 47.4818 -122.2590 149° Southeast 215 247 1,800 1,320 Climbing FlightAware ADS-B
12:32PM 47.4679 -122.2460 148° Southeast 242 278 2,200 1,680 Climbing FlightAware ADS-B
12:32PM 47.4581 -122.2370 148° Southeast 254 292 2,500 2,640 Climbing FlightAware ADS-B
12:32PM 47.4428 -122.2220 146° Southeast 260 299 3,300 3,360 Climbing FlightAware ADS-B
12:33PM 47.4275 -122.2080 148° Southeast 260 299 4,200 3,660 Climbing FlightAware ADS-B
12:33PM 47.4240 -122.2050 150° Southeast 261 300 4,400 3,420 Climbing FlightAware ADS-B
12:33PM 47.4197 -122.2020 155° Southeast 260 299 4,600 3,720 Climbing FlightAware ADS-B
12:33PM 47.4153 -122.1990 155° Southeast 259 298 4,900 3,300 Climbing FlightAware ADS-B
12:33PM 47.4103 -122.1970 165° South 259 298 5,100 2,640 Climbing FlightAware ADS-B
12:33PM 47.4051 -122.1960 173° South 260 299 5,300 1,980 Climbing FlightAware ADS-B
12:33PM 47.3998 -122.1950 173° South 263 303 5,400 1,560 Climbing FlightAware ADS-B
12:33PM 47.3818 -122.1930 176° South 267 307 5,800 960 Climbing FlightAware ADS-B
12:34PM 47.3629 -122.1900 174° South 270 311 5,900 720 Climbing FlightAware ADS-B
12:34PM 47.3508 -122.1890 177° South 271 312 6,100 2,640 Climbing FlightAware ADS-B
12:34PM 47.3320 -122.1880 178° South 261 300 7,000 3,600 Climbing FlightAware ADS-B
12:34PM 47.3143 -122.1860 176° South 259 298 7,900 3,600 Climbing FlightAware ADS-B
12:34PM 47.2958 -122.1850 178° South 262 302 8,800 3,240 Climbing FlightAware ADS-B
12:35PM 47.2775 -122.1830 176° South 267 307 9,600 2,520 Climbing FlightAware ADS-B
12:35PM 47.2385 -122.1790 176° South 297 342 10,700 2,160 Climbing FlightAware ADS-B
12:36PM 47.1942 -122.1760 177° South 329 379 11,800 2,880 Climbing FlightAware ADS-B
12:36PM 47.1477 -122.1710 176° South 336 387 13,600 3,300 Climbing FlightAware ADS-B
12:37PM 47.0998 -122.1660 176° South 349 402 15,200 3,120 Climbing FlightAware ADS-B
12:37PM 47.0780 -122.1640 176° South 354 407 15,900 3,300 Climbing FlightAware ADS-B
12:37PM 47.0522 -122.1570 170° South 358 412 16,800 3,360 Climbing FlightAware ADS-B
12:37PM 47.0408 -122.1520 163° South 363 418 17,200 3,600 Climbing FlightAware ADS-B
12:37PM 47.0360 -122.1490 157° South 364 419 17,400 3,000 Climbing FlightAware ADS-B
12:37PM 47.0293 -122.1440 153° Southeast 367 422 17,600 3,000 Climbing FlightAware ADS-B
12:38PM 47.0224 -122.1360 142° Southeast 369 425 17,900 3,240 Climbing FlightAware ADS-B
12:38PM 46.9821 -122.0870 140° Southeast 377 434 19,500 3,000 Climbing FlightAware ADS-B
12:39PM 46.9415 -122.0370 140° Southeast 390 449 20,900 2,520 Climbing FlightAware ADS-B
12:39PM 46.8988 -121.9840 140° Southeast 401 461 22,100 2,400 Climbing FlightAware ADS-B
12:40PM 46.8555 -121.9300 140° Southeast 410 472 23,400 2,460 Climbing FlightAware ADS-B
12:40PM 46.8116 -121.8760 140° Southeast 416 479 24,600 2,460 Climbing FlightAware ADS-B
12:41PM 46.7675 -121.8210 139° Southeast 418 481 25,900 2,340 Climbing FlightAware ADS-B
12:41PM 46.7190 -121.7620 140° Southeast 425 489 27,100 1,980 Climbing FlightAware ADS-B
12:42PM 46.6727 -121.7050 140° Southeast 434 499 28,000 1,740 Climbing FlightAware ADS-B
12:42PM 46.6044 -121.6210 140° Southeast 442 509 29,300 2,100 Climbing FlightAware ADS-B
12:43PM 46.5575 -121.5640 140° Southeast 439 505 30,600 2,460 Climbing FlightAware ADS-B
12:43PM 46.5107 -121.5070 140° Southeast 433 498 31,800 2,340 Climbing FlightAware ADS-B
12:44PM 46.4644 -121.4510 140° Southeast 429 494 33,000 2,220 Climbing FlightAware ADS-B
12:44PM 46.4178 -121.3950 140° Southeast 426 490 34,100 1,920 Climbing FlightAware ADS-B
12:45PM 46.3628 -121.3250 139° Southeast 428 493 35,200 1,740 Climbing FlightAware ADS-B
12:45PM 46.3388 -121.2840 130° Southeast 434 499 35,700 1,560 Climbing FlightAware ADS-B
12:45PM 46.3254 -121.2550 124° Southeast 438 504 36,000 1,260 Climbing FlightAware ADS-B
12:46PM 46.2960 -121.1810 120° Southeast 440 506 36,600 1,260 Climbing FlightAware
12:46PM 46.2864 -121.1580 121° Southeast 441 507 36,800 1,500 Climbing FlightAware ADS-B
12:47PM 46.2531 -121.0770 121° Southeast 441 507 37,600 1,200 Climbing FlightAware ADS-B
12:47PM 46.2230 -121.0030 120° Southeast 442 509 38,100 1,020 Climbing FlightAware
12:47PM 46.2070 -120.9640 121° Southeast 443 510 38,400 1,440 Climbing FlightAware ADS-B
12:48PM 46.1705 -120.8770 121° Southeast 438 504 39,300 1,140 Climbing FlightAware ADS-B
12:49PM 46.1277 -120.7740 121° Southeast 441 507 39,900 720 Climbing FlightAware ADS-B
12:49PM 46.0770 -120.6490 120° Southeast 450 518 40,400 600 Climbing FlightAware
12:50PM 46.0665 -120.6240 121° Southeast 451 519 40,500 480 Climbing FlightAware ADS-B
12:51PM 46.0030 -120.4690 120° Southeast 454 522 41,000 300 Climbing FlightAware
12:51PM 45.9680 -120.3860 121° Southeast 451 519 41,000  Level FlightAware
12:52PM 45.9290 -120.2930 121° Southeast 452 520 41,000  Level FlightAware
12:52PM 45.8910 -120.2000 120° Southeast 453 521 41,000  Level FlightAware
12:53PM 45.8580 -120.1200 121° Southeast 453 521 41,000  Level FlightAware
12:54PM 45.8160 -120.0210 121° Southeast 453 521 41,000  Level FlightAware
12:54PM 45.7770 -119.9280 121° Southeast 452 520 41,000  Level FlightAware
12:55PM 45.7390 -119.8370 121° Southeast 451 519 41,000  Level FlightAware
12:55PM 45.7040 -119.7530 121° Southeast 451 519 41,000  Level FlightAware
12:56PM 45.6670 -119.6660 121° Southeast 451 519 41,000  Level FlightAware
12:56PM 45.6270 -119.5710 121° Southeast 450 518 41,000  Level FlightAware
12:57PM 45.5870 -119.4780 122° Southeast 449 517 41,000  Level FlightAware
12:58PM 45.5500 -119.3900 121° Southeast 448 516 41,000  Level FlightAware
12:58PM 45.5150 -119.3100 122° Southeast 447 514 41,000  Level FlightAware
12:59PM 45.4800 -119.2280 121° Southeast 446 513 41,000  Level FlightAware
12:59PM 45.4420 -119.1390 121° Southeast 445 512 41,000  Level FlightAware
01:00PM 45.4010 -119.0440 122° Southeast 445 512 41,000  Level FlightAware
01:01PM 45.3620 -118.9540 122° Southeast 444 511 41,000  Level FlightAware
01:01PM 45.3280 -118.8760 122° Southeast 444 511 41,000  Level FlightAware
01:02PM 45.2910 -118.7910 122° Southeast 444 511 41,000  Level FlightAware
01:02PM 45.2510 -118.7010 122° Southeast 444 511 41,000  Level FlightAware
01:03PM 45.2130 -118.6130 121° Southeast 444 511 41,000  Level FlightAware
01:04PM 45.1740 -118.5250 122° Southeast 443 510 41,000  Level FlightAware
01:04PM 45.1400 -118.4480 122° Southeast 443 510 41,000  Level FlightAware
01:05PM 45.0980 -118.3540 122° Southeast 443 510 41,000  Level FlightAware
01:05PM 45.0570 -118.2600 122° Southeast 441 507 41,000  Level FlightAware
01:06PM 45.0220 -118.1830 123° Southeast 440 506 41,000  Level FlightAware
01:07PM 44.9740 -118.0750 122° Southeast 441 507 41,000  Level FlightAware
01:07PM 44.9350 -117.9890 123° Southeast 440 506 41,000  Level FlightAware
01:08PM 44.8980 -117.9050 122° Southeast 441 507 41,000  Level FlightAware
01:08PM 44.8620 -117.8240 122° Southeast 442 509 41,000  Level FlightAware
01:09PM 44.8240 -117.7400 123° Southeast 442 509 41,000  Level FlightAware
01:09PM 44.7850 -117.6550 123° Southeast 444 511 41,000  Level FlightAware
01:10PM 44.7440 -117.5660 123° Southeast 444 511 41,000  Level FlightAware
01:11PM 44.7070 -117.4830 122° Southeast 445 512 41,000  Level FlightAware
01:11PM 44.6690 -117.4000 123° Southeast 446 513 41,000  Level FlightAware
01:12PM 44.6310 -117.3190 123° Southeast 447 514 41,000  Level FlightAware
01:12PM 44.5900 -117.2290 123° Southeast 448 516 41,000  Level FlightAware
01:13PM 44.5530 -117.1490 123° Southeast 449 517 41,000  Level FlightAware
01:14PM 44.5090 -117.0550 123° Southeast 450 518 41,000  Level FlightAware
01:14PM 44.4710 -116.9720 123° Southeast 450 518 41,000  Level FlightAware
01:15PM 44.4300 -116.8850 123° Southeast 450 518 41,000  Level FlightAware
01:15PM 44.3890 -116.7970 123° Southeast 450 518 41,000  Level FlightAware
01:16PM 44.3540 -116.7230 123° Southeast 449 517 41,000  Level FlightAware
01:16PM 44.3120 -116.6320 123° Southeast 449 517 41,000  Level FlightAware
01:17PM 44.2730 -116.5500 124° Southeast 448 516 41,000  Level FlightAware
01:18PM 44.2320 -116.4640 124° Southeast 447 514 41,000  Level FlightAware
01:18PM 44.1960 -116.3870 123° Southeast 447 514 41,000  Level FlightAware
01:19PM 44.1560 -116.3020 123° Southeast 446 513 41,000  Level FlightAware
01:19PM 44.1140 -116.2160 124° Southeast 446 513 41,000  Level FlightAware
01:20PM 44.0730 -116.1290 123° Southeast 446 513 41,000  Level FlightAware
01:21PM 44.0320 -116.0450 124° Southeast 446 513 41,000  Level FlightAware
01:21PM 43.9910 -115.9580 123° Southeast 447 514 41,000  Level FlightAware
01:22PM 43.9530 -115.8800 124° Southeast 446 513 41,000  Level FlightAware
01:22PM 43.9120 -115.7960 124° Southeast 447 514 41,000  Level FlightAware
01:23PM 43.8760 -115.7210 124° Southeast 448 516 41,000  Level FlightAware
01:23PM 43.8330 -115.6340 124° Southeast 447 514 41,000  Level FlightAware
01:24PM 43.7920 -115.5500 124° Southeast 447 514 41,000  Level FlightAware
01:25PM 43.7510 -115.4650 124° Southeast 448 516 41,000  Level FlightAware
01:25PM 43.7130 -115.3890 125° Southeast 448 516 41,000  Level FlightAware
01:26PM 43.6690 -115.2990 124° Southeast 449 517 41,000  Level FlightAware
01:26PM 43.6310 -115.2210 124° Southeast 449 517 41,000  Level FlightAware
01:27PM 43.5890 -115.1370 125° Southeast 450 518 41,000  Level FlightAware
01:27PM 43.5500 -115.0580 124° Southeast 451 519 41,000  Level FlightAware
01:28PM 43.5070 -114.9710 124° Southeast 451 519 41,000  Level FlightAware
01:29PM 43.4640 -114.8850 125° Southeast 452 520 41,000  Level FlightAware
01:29PM 43.4210 -114.8000 125° Southeast 453 521 41,000  Level FlightAware
01:30PM 43.3790 -114.7150 124° Southeast 453 521 41,000  Level FlightAware
01:30PM 43.3410 -114.6390 124° Southeast 453 521 41,000  Level FlightAware
01:31PM 43.3020 -114.5640 126° Southeast 452 520 41,000  Level FlightAware
01:32PM 43.2540 -114.4670 124° Southeast 452 520 41,000  Level FlightAware
01:32PM 43.2160 -114.3920 125° Southeast 454 522 41,000  Level FlightAware
01:33PM 43.1710 -114.3050 125° Southeast 453 521 41,000  Level FlightAware
01:33PM 43.1270 -114.2190 125° Southeast 455 524 41,000  Level FlightAware
01:34PM 43.0880 -114.1430 125° Southeast 456 525 41,000  Level FlightAware
01:35PM 43.0450 -114.0580 125° Southeast 458 527 41,000  Level FlightAware
01:35PM 43.0040 -113.9790 125° Southeast 458 527 41,000  Level FlightAware
01:36PM 42.9600 -113.8930 125° Southeast 459 528 41,000  Level FlightAware
01:36PM 42.9160 -113.8090 126° Southeast 458 527 41,000  Level FlightAware
01:37PM 42.8947 -113.7680 125° Southeast 458 527 41,000  Level FlightAware ADS-B
01:37PM 42.8310 -113.6460 125° Southeast 453 521 41,000  Level FlightAware
01:38PM 42.7870 -113.5610 125° Southeast 453 521 41,000  Level FlightAware
01:39PM 42.7490 -113.4890 126° Southeast 452 520 41,000  Level FlightAware
01:39PM 42.7070 -113.4090 126° Southeast 453 521 41,000  Level FlightAware
01:40PM 42.6630 -113.3250 125° Southeast 451 519 41,000  Level FlightAware
01:40PM 42.6180 -113.2390 125° Southeast 450 518 41,000  Level FlightAware
01:41PM 42.5770 -113.1610 126° Southeast 450 518 41,000  Level FlightAware
01:42PM 42.5370 -113.0870 126° Southeast 449 517 41,000  Level FlightAware
01:42PM 42.4930 -113.0040 126° Southeast 449 517 41,000  Level FlightAware
01:43PM 42.4520 -112.9270 126° Southeast 449 517 41,000  Level FlightAware
01:43PM 42.4060 -112.8410 126° Southeast 451 519 41,000  Level FlightAware
01:44PM 42.3670 -112.7680 126° Southeast 453 521 41,000  Level FlightAware
01:44PM 42.3310 -112.7020 126° Southeast 456 525 41,000  Level FlightAware
01:45PM 42.2780 -112.6030 126° Southeast 460 529 41,000  Level FlightAware
01:46PM 42.2340 -112.5200 126° Southeast 461 531 41,000  Level FlightAware
01:46PM 42.1930 -112.4450 126° Southeast 461 531 41,000  Level FlightAware
01:47PM 42.1377 -112.3430 126° Southeast 463 533 41,000  Level FlightAware ADS-B
01:48PM 42.0570 -112.1950 126° Southeast 460 529 41,000  Level FlightAware
01:48PM 42.0216 -112.1310 127° Southeast 461 531 41,000  Level FlightAware ADS-B
01:49PM 41.9823 -112.0600 127° Southeast 462 532 41,000  Level FlightAware ADS-B
01:49PM 41.9437 -111.9900 127° Southeast 462 532 41,000  Level FlightAware ADS-B
01:50PM 41.9044 -111.9180 126° Southeast 463 533 41,000  Level FlightAware ADS-B
01:51PM 41.8630 -111.8430 127° Southeast 465 535 41,000  Level FlightAware ADS-B
01:51PM 41.8162 -111.7590 127° Southeast 465 535 41,000  Level FlightAware ADS-B
01:52PM 41.7740 -111.6830 127° Southeast 464 534 41,000  Level FlightAware
01:52PM 41.7557 -111.6500 127° Southeast 465 535 41,000  Level FlightAware ADS-B
01:52PM 41.7171 -111.5810 127° Southeast 464 534 41,000  Level FlightAware ADS-B
01:53PM 41.6781 -111.5110 127° Southeast 463 533 41,000  Level FlightAware ADS-B
01:53PM 41.6380 -111.4400 127° Southeast 463 533 41,000  Level FlightAware ADS-B
01:54PM 41.5939 -111.3610 127° Southeast 465 535 41,000  Level FlightAware ADS-B
01:55PM 41.5552 -111.2920 127° Southeast 461 531 41,000  Level FlightAware ADS-B
01:55PM 41.5084 -111.2090 127° Southeast 461 531 41,000  Level FlightAware ADS-B
01:56PM 41.4698 -111.1410 127° Southeast 460 529 41,000  Level FlightAware ADS-B
01:56PM 41.4283 -111.0680 127° Southeast 459 528 41,000  Level FlightAware ADS-B
01:57PM 41.3897 -111.0000 127° Southeast 460 529 41,000  Level FlightAware ADS-B
01:57PM 41.3510 -110.9320 127° Southeast 462 532 41,000  Level FlightAware ADS-B
01:58PM 41.3117 -110.8630 127° Southeast 465 535 41,000  Level FlightAware ADS-B
01:58PM 41.2649 -110.7810 127° Southeast 466 536 41,000  Level FlightAware ADS-B
01:59PM 41.2255 -110.7120 127° Southeast 467 537 41,000  Level FlightAware ADS-B
01:59PM 41.1771 -110.6280 127° Southeast 467 537 41,000  Level FlightAware ADS-B
02:00PM 41.1369 -110.5590 128° Southeast 467 537 41,000  Level FlightAware ADS-B
02:00PM 41.0966 -110.4890 127° Southeast 469 540 41,000  Level FlightAware ADS-B
02:01PM 41.0562 -110.4190 127° Southeast 470 541 41,000  Level FlightAware ADS-B
02:02PM 41.0108 -110.3410 128° Southeast 471 542 41,000  Level FlightAware ADS-B
02:02PM 40.9706 -110.2720 128° Southeast 471 542 41,000  Level FlightAware ADS-B
02:03PM 40.9206 -110.1860 128° Southeast 472 543 41,000  Level FlightAware ADS-B
02:03PM 40.8784 -110.1140 128° Southeast 473 544 41,000  Level FlightAware ADS-B
02:04PM 40.8339 -110.0380 128° Southeast 475 547 41,000  Level FlightAware ADS-B
02:04PM 40.7780 -109.9440 128° Southeast 476 548 41,000  Level FlightAware
02:05PM 40.7270 -109.8580 128° Southeast 477 549 41,000  Level FlightAware
02:06PM 40.6670 -109.7550 128° Southeast 477 549 41,000  Level FlightAware
02:06PM 40.6270 -109.6880 128° Southeast 477 549 41,000  Level FlightAware
02:07PM 40.5750 -109.6010 128° Southeast 476 548 41,000  Level FlightAware
02:07PM 40.5320 -109.5290 128° Southeast 477 549 41,000  Level FlightAware
02:08PM 40.4730 -109.4290 128° Southeast 478 550 41,000  Level FlightAware
02:09PM 40.4360 -109.3670 128° Southeast 479 551 41,000  Level FlightAware
02:09PM 40.3790 -109.2720 128° Southeast 480 552 41,000  Level FlightAware
02:10PM 40.3390 -109.2060 128° Southeast 482 555 41,000  Level FlightAware
02:10PM 40.2850 -109.1180 129° Southeast 484 557 41,000  Level FlightAware
02:11PM 40.2410 -109.0440 128° Southeast 484 557 41,000  Level FlightAware
02:12PM 40.1880 -108.9570 129° Southeast 485 558 41,000  Level FlightAware
02:12PM 40.1460 -108.8880 129° Southeast 485 558 41,000  Level FlightAware
02:13PM 40.1020 -108.8150 128° Southeast 485 558 41,000  Level FlightAware
02:13PM 40.0560 -108.7410 129° Southeast 485 558 41,000  Level FlightAware
02:14PM 40.0040 -108.6560 129° Southeast 483 556 41,000  Level FlightAware
02:15PM 39.9460 -108.5610 129° Southeast 485 558 41,000  Level FlightAware
02:15PM 39.8940 -108.4780 129° Southeast 483 556 41,000  Level FlightAware
02:16PM 39.8360 -108.3840 129° Southeast 484 557 41,000  Level FlightAware
02:17PM 39.7760 -108.2870 129° Southeast 480 552 41,000  Level FlightAware
02:17PM 39.7320 -108.2160 129° Southeast 481 554 41,000  Level FlightAware
02:18PM 39.6800 -108.1320 129° Southeast 482 555 41,000  Level FlightAware
02:18PM 39.6290 -108.0510 129° Southeast 483 556 41,000  Level FlightAware
02:19PM 39.5720 -107.9600 129° Southeast 484 557 41,000  Level FlightAware
02:20PM 39.5110 -107.8620 129° Southeast 484 557 41,000  Level FlightAware
02:20PM 39.4610 -107.7840 130° Southeast 484 557 41,000  Level FlightAware
02:21PM 39.3990 -107.6850 129° Southeast 484 557 41,000  Level FlightAware
02:21PM 39.3868 -107.6660 130° Southeast 484 557 41,000  Level FlightAware ADS-B
02:22PM 39.3439 -107.5990 130° Southeast 484 557 41,000  Level FlightAware ADS-B
02:22PM 39.3014 -107.5320 129° Southeast 482 555 41,000  Level FlightAware ADS-B
02:23PM 39.2562 -107.4610 129° Southeast 480 552 41,000  Level FlightAware ADS-B
02:23PM 39.2131 -107.3930 129° Southeast 478 550 41,000  Level FlightAware ADS-B
02:24PM 39.1627 -107.3140 129° Southeast 475 547 41,000  Level FlightAware ADS-B
02:24PM 39.1189 -107.2460 130° Southeast 472 543 41,000  Level FlightAware ADS-B
02:25PM 39.0769 -107.1810 130° Southeast 470 541 41,000  Level FlightAware ADS-B
02:25PM 39.0349 -107.1160 130° Southeast 470 541 41,000  Level FlightAware ADS-B
02:26PM 38.9922 -107.0490 129° Southeast 468 539 41,000  Level FlightAware ADS-B
02:26PM 38.9506 -106.9850 130° Southeast 469 540 41,000  Level FlightAware ADS-B
02:27PM 38.9063 -106.9160 130° Southeast 467 537 41,000  Level FlightAware ADS-B
02:27PM 38.8642 -106.8520 130° Southeast 468 539 41,000  Level FlightAware ADS-B
02:28PM 38.8216 -106.7860 130° Southeast 470 541 41,000  Level FlightAware ADS-B
02:28PM 38.7775 -106.7190 130° Southeast 469 540 41,000  Level FlightAware ADS-B
02:29PM 38.7351 -106.6540 130° Southeast 470 541 41,000  Level FlightAware ADS-B
02:29PM 38.6930 -106.5890 130° Southeast 469 540 41,000  Level FlightAware ADS-B
02:30PM 38.6508 -106.5250 130° Southeast 468 539 41,000  Level FlightAware ADS-B
02:30PM 38.6085 -106.4610 130° Southeast 468 539 41,000  Level FlightAware ADS-B
02:31PM 38.5582 -106.3850 130° Southeast 469 540 41,000  Level FlightAware ADS-B
02:32PM 38.5163 -106.3210 130° Southeast 471 542 41,000  Level FlightAware ADS-B
02:32PM 38.4716 -106.2530 130° Southeast 471 542 41,000  Level FlightAware ADS-B
02:33PM 38.4269 -106.1860 130° Southeast 474 545 41,000  Level FlightAware ADS-B
02:33PM 38.3843 -106.1210 130° Southeast 473 544 41,000  Level FlightAware ADS-B
02:34PM 38.3414 -106.0570 131° Southeast 475 547 41,000  Level FlightAware ADS-B
02:34PM 38.2984 -105.9930 131° Southeast 475 547 41,000  Level FlightAware ADS-B
02:35PM 38.2555 -105.9290 130° Southeast 476 548 41,000  Level FlightAware ADS-B
02:35PM 38.2108 -105.8620 130° Southeast 475 547 41,000  Level FlightAware ADS-B
02:36PM 38.1664 -105.7960 131° Southeast 475 547 41,000  Level FlightAware ADS-B
02:36PM 38.1217 -105.7290 130° Southeast 475 547 41,000  Level FlightAware ADS-B
02:37PM 38.0785 -105.6650 131° Southeast 475 547 41,000  Level FlightAware ADS-B
02:37PM 38.0355 -105.6010 130° Southeast 474 545 41,000  Level FlightAware ADS-B
02:38PM 37.9907 -105.5350 131° Southeast 474 545 41,000  Level FlightAware ADS-B
02:38PM 37.9467 -105.4700 131° Southeast 473 544 41,000  Level FlightAware ADS-B
02:39PM 37.9038 -105.4070 131° Southeast 473 544 41,000  Level FlightAware ADS-B
02:39PM 37.8599 -105.3420 131° Southeast 472 543 41,000  Level FlightAware ADS-B
02:40PM 37.8159 -105.2780 131° Southeast 472 543 41,000  Level FlightAware ADS-B
02:40PM 37.7728 -105.2150 131° Southeast 474 545 41,000  Level FlightAware ADS-B
02:41PM 37.7297 -105.1520 131° Southeast 474 545 41,000  Level FlightAware ADS-B
02:41PM 37.6829 -105.0840 131° Southeast 473 544 41,000  Level FlightAware ADS-B
02:42PM 37.6382 -105.0190 131° Southeast 471 542 41,000  Level FlightAware ADS-B
02:43PM 37.5698 -104.9200 131° Southeast 467 537 41,000  Level FlightAware ADS-B
02:43PM 37.5240 -104.8530 131° Southeast 468 539 41,000  Level FlightAware ADS-B
02:44PM 37.4767 -104.7850 131° Southeast 471 542 41,000  Level FlightAware ADS-B
02:44PM 37.4154 -104.6970 131° Southeast 471 542 41,000  Level FlightAware ADS-B
02:45PM 37.3302 -104.5740 131° Southeast 471 542 41,000  Level FlightAware ADS-B
02:46PM 37.2477 -104.4560 131° Southeast 471 542 41,000  Level FlightAware ADS-B
02:47PM 37.1636 -104.3210 128° Southeast 471 542 41,000  Level FlightAware ADS-B
02:48PM 37.1167 -104.2280 122° Southeast 479 551 41,000  Level FlightAware ADS-B
02:49PM 37.0760 -104.1480 123° Southeast 478 550 41,000  Level FlightAware ADS-B
02:49PM 37.0280 -104.0540 123° Southeast 479 551 41,000  Level FlightAware ADS-B
02:50PM 36.9580 -103.9170 123° Southeast 477 549 41,000  Level FlightAware ADS-B
02:51PM 36.9053 -103.8150 123° Southeast 477 549 41,000  Level FlightAware ADS-B
02:52PM 36.8691 -103.7440 122° Southeast 474 545 41,000  Level FlightAware ADS-B
02:52PM 36.8183 -103.6464 122° Southeast 471 542 41,000  Level Albuquerque Center
02:53PM 36.7503 -103.5153 123° Southeast 470 541 41,000  Level Albuquerque Center
02:54PM 36.6819 -103.3839 123° Southeast 472 543 41,000  Level Albuquerque Center
02:55PM 36.6081 -103.2425 123° Southeast 471 542 41,000  Level Albuquerque Center
02:56PM 36.5361 -103.1047 123° Southeast 471 542 41,000  Level Albuquerque Center
02:57PM 36.4519 -102.9444 123° Southeast 470 541 41,000  Level Albuquerque Center
02:59PM 36.3886 -102.8244 123° Southeast 470 541 41,000  Level Albuquerque Center
03:00PM 36.3167 -102.6889 123° Southeast 470 541 41,000  Level Albuquerque Center
03:01PM 36.2308 -102.5281 123° Southeast 467 537 41,000  Level Albuquerque Center
03:02PM 36.1600 -102.3964 124° Southeast 463 533 41,000  Level Albuquerque Center
03:07PM 35.8080 -101.6390 124° Southeast 462 532 41,000  Level FlightAware
03:08PM 35.7850 -101.5550 109° East 462 532 41,000  Level FlightAware
03:08PM 35.7610 -101.4650 108° East 463 533 41,000  Level FlightAware
03:09PM 35.7390 -101.3860 109° East 463 533 41,000  Level FlightAware
03:09PM 35.7090 -101.2950 112° Southeast 460 529 41,000  Level FlightAware
03:10PM 35.6590 -101.2090 126° Southeast 456 525 41,000  Level FlightAware
03:11PM 35.6210 -101.1450 126° Southeast 456 525 41,000  Level FlightAware
03:11PM 35.5710 -101.0630 127° Southeast 457 526 41,000  Level FlightAware
03:12PM 35.5240 -100.9850 127° Southeast 457 526 41,000  Level FlightAware
03:13PM 35.4810 -100.9120 126° Southeast 457 526 41,000  Level FlightAware
03:13PM 35.4400 -100.8450 127° Southeast 457 526 41,000  Level FlightAware
03:14PM 35.3760 -100.7370 126° Southeast 459 528 41,000  Level FlightAware
03:15PM 35.2910 -100.5990 127° Southeast 459 528 41,000  Level FlightAware
03:16PM 35.2430 -100.5200 127° Southeast 461 531 41,000  Level FlightAware
03:16PM 35.2090 -100.4630 126° Southeast 461 531 41,000  Level FlightAware
03:17PM 35.1540 -100.3730 127° Southeast 460 529 41,000  Level FlightAware
03:17PM 35.1080 -100.2980 127° Southeast 458 527 41,000  Level FlightAware
03:18PM 35.0640 -100.2270 127° Southeast 457 526 41,000  Level FlightAware
03:19PM 35.0170 -100.1510 127° Southeast 457 526 41,000  Level FlightAware
03:19PM 34.9760 -100.0840 127° Southeast 457 526 41,000  Level FlightAware
03:20PM 34.9310 -100.0110 127° Southeast 456 525 41,000  Level FlightAware
03:20PM 34.8910 -99.9460 127° Southeast 456 525 41,000  Level FlightAware
03:21PM 34.8490 -99.8790 127° Southeast 455 524 41,000  Level FlightAware
03:22PM 34.7970 -99.7950 127° Southeast 456 525 41,000  Level FlightAware
03:22PM 34.7500 -99.7190 127° Southeast 457 526 41,000  Level FlightAware
03:23PM 34.7080 -99.6530 128° Southeast 456 525 41,000  Level FlightAware
03:23PM 34.6650 -99.5830 127° Southeast 456 525 41,000  Level FlightAware
03:24PM 34.6180 -99.5080 127° Southeast 456 525 41,000  Level FlightAware
03:24PM 34.5740 -99.4380 127° Southeast 456 525 41,000  Level FlightAware
03:25PM 34.5320 -99.3720 128° Southeast 456 525 41,000  Level FlightAware
03:26PM 34.4860 -99.2970 127° Southeast 455 524 41,000  Level FlightAware
03:26PM 34.4380 -99.2220 128° Southeast 455 524 41,000 -120 Level FlightAware
03:27PM 34.3960 -99.1560 128° Southeast 455 524 40,900 -540 Descending FlightAware
03:27PM 34.3510 -99.0840 127° Southeast 457 526 40,400 -960 Descending FlightAware
03:28PM 34.3040 -99.0110 128° Southeast 457 526 39,800 -1,020 Descending FlightAware
03:28PM 34.2620 -98.9450 128° Southeast 457 526 39,300 -960 Descending FlightAware
03:29PM 34.2190 -98.8770 127° Southeast 463 533 38,700 -1,020 Descending FlightAware
03:30PM 34.1680 -98.7970 128° Southeast 467 537 38,100 -1,440 Descending FlightAware
03:30PM 34.1220 -98.7250 128° Southeast 465 535 37,000 -2,220 Descending FlightAware
03:31PM 34.0810 -98.6610 128° Southeast 466 536 35,600 -3,060 Descending FlightAware
03:32PM 34.0180 -98.5640 128° Southeast 476 548 33,100 -3,540 Descending FlightAware
03:32PM 33.9700 -98.4890 128° Southeast 483 556 30,900 -3,720 Descending FlightAware
03:33PM 33.9260 -98.4210 128° Southeast 487 560 29,000 -3,360 Descending FlightAware
03:33PM 33.8750 -98.3420 128° Southeast 479 551 27,100 -2,760 Descending FlightAware
03:34PM 33.8370 -98.2840 128° Southeast 462 532 25,800 -2,760 Descending FlightAware
03:35PM 33.7820 -98.1990 128° Southeast 435 501 23,800 -2,880 Descending FlightAware
03:35PM 33.7460 -98.1420 127° Southeast 429 494 22,500 -2,640 Descending FlightAware
03:36PM 33.7020 -98.0740 128° Southeast 421 484 20,900 -2,760 Descending FlightAware
03:36PM 33.6600 -98.0100 128° Southeast 411 473 19,300 -2,580 Descending FlightAware
03:37PM 33.6180 -97.9480 129° Southeast 389 448 17,900 -2,460 Descending FlightAware
03:37PM 33.5800 -97.8890 128° Southeast 373 429 16,400 -2,400 Descending FlightAware
03:38PM 33.5440 -97.8330 128° Southeast 367 422 15,100 -2,400 Descending FlightAware
03:39PM 33.5050 -97.7830 133° Southeast 362 417 13,700 -2,460 Descending FlightAware
03:39PM 33.4670 -97.7390 136° Southeast 356 410 12,400 -2,100 Descending FlightAware
03:40PM 33.4230 -97.6880 136° Southeast 338 389 11,300 -1,320 Descending FlightAware
03:40PM 33.3850 -97.6430 135° Southeast 310 357 10,800 -1,020 Descending FlightAware
03:41PM 33.3530 -97.6050 135° Southeast 296 341 10,200 -1,320 Descending FlightAware
03:41PM 33.3290 -97.5770 136° Southeast 292 336 9,600 -1,500 Descending FlightAware
03:42PM 33.3110 -97.5560 136° Southeast 292 336 9,100 -1,620 Descending FlightAware
03:42PM 33.2930 -97.5290 129° Southeast 288 331 8,500 -1,620 Descending FlightAware
03:42PM 33.2870 -97.5170 121° Southeast 287 330 8,300 -1,500 Descending FlightAware
03:42PM 33.2810 -97.4990 112° Southeast 285 328 8,000 -1,500 Descending FlightAware
03:43PM 33.2720 -97.4700 110° East 285 328 7,500 -1,620 Descending FlightAware
03:43PM 33.2610 -97.4310 109° East 283 326 6,800 -1,680 Descending FlightAware
03:43PM 33.2520 -97.4010 110° East 281 323 6,200 -1,500 Descending FlightAware
03:44PM 33.2430 -97.3730 111° Southeast 278 320 5,800 -1,560 Descending FlightAware
03:44PM 33.2350 -97.3450 109° East 276 318 5,200 -1,320 Descending FlightAware
03:44PM 33.2250 -97.3130 110° East 274 315 4,900 -480 Descending FlightAware
03:45PM 33.2170 -97.2850 109° East 272 313 4,900  Level FlightAware
03:45PM 33.2060 -97.2510 111° Southeast 264 304 4,900  Level FlightAware
03:45PM 33.1980 -97.2240 109° East 266 306 4,900  Level FlightAware
03:46PM 33.1900 -97.2100 124° Southeast 261 300 4,900  Level FlightAware
03:46PM 33.1830 -97.2020 136° Southeast 260 299 4,900  Level FlightAware
03:46PM 33.1710 -97.1900 140° Southeast 256 295 4,900  Level FlightAware
03:46PM 33.1530 -97.1700 137° Southeast 241 277 4,900 -180 Level FlightAware
03:47PM 33.1430 -97.1600 140° Southeast 235 270 4,800 -1,140 Descending FlightAware
03:47PM 33.1220 -97.1380 139° Southeast 221 254 4,200 -1,500 Descending FlightAware
03:47PM 33.1090 -97.1240 138° Southeast 221 254 3,700 -1,740 Descending FlightAware
03:48PM 33.0930 -97.1080 140° Southeast 223 257 3,100 -1,140 Descending FlightAware
03:48PM 33.0750 -97.0890 139° Southeast 201 231 2,900 -300 Descending FlightAware
03:48PM 33.0650 -97.0780 137° Southeast 187 215 2,900  Level FlightAware
03:49PM 33.0490 -97.0620 140° Southeast 180 207 2,900 -300 Level FlightAware
03:49PM 33.0380 -97.0540 149° Southeast 178 205 2,700 -600 Descending FlightAware
03:49PM 33.0350 -97.0540 180° South 179 206 2,700 -600 Level FlightAware
03:49PM 33.0310 -97.0540 180° South 179 206 2,600 -900 Descending FlightAware
03:50PM 33.0120 -97.0540 180° South 177 204 2,300 -960 Descending FlightAware
03:50PM 32.9920 -97.0540 180° South 166 191 1,900 -840 Descending FlightAware
03:50PM 32.9730 -97.0540 180° South 141 162 1,600 -720 Descending FlightAware
03:51PM 32.9630 -97.0540 180° South 136 157 1,400 -360 Descending FlightAware
03:51PM 32.9400 -97.0540 180° South 135 155 1,300 -180 Descending FlightAware
03:59PM 32.8968 -97.0380 140° Southeast  Level Estimated
04:00PM 32.8968 -97.0380 140° Southeast  Level Estimated